• Join FlightAware (Why Join?)
  • Login
  • US Flag 
06:09AM EDT


 

Airport Tracker/Info


-or-


 

Live Flight TrackerFlight Track Log ✈ UAL4528 ✈ 17-Apr-2013 ✈ KLFT - KIAH

Flight Track Log - Related Links

Times and Time Zones

All times are in EDT time to prevent confusion due to time zone crossing. See the UAL4528 flight status page for this flight to view local times or setup timezone preferences in your user account.

Time Position Orientation Groundspeed Altitude Reporting Facility
EDT Latitude Longitude Course Direction KTS MPH feet Rate Location/Type
03:28PM 30.1531 -92.0553 227° Southwest 205 236 18,000  Level Houston Center
03:29PM 30.1214 -92.1042 233° Southwest 217 250 5,500 -5,040 Descending Houston Center
03:30PM 30.0364 -92.1959 229° Southwest  Level FlightAware Approximate
03:30PM 30.0797 -92.1681 233° Southwest 238 274 7,700  Level Houston Center
03:31PM 29.9922 -92.2716 229° Southwest  Level FlightAware Approximate
03:31PM 30.0233 -92.2569 234° Southwest 267 307 10,100  Level Houston Center
03:32PM 29.9384 -92.3432 229° Southwest  Level FlightAware Approximate
03:32PM 29.9669 -92.3447 233° Southwest 323 372 11,100  Level Houston Center
03:33PM 29.8939 -92.4242 227° Southwest  Level FlightAware Approximate
03:33PM 29.9078 -92.4344 233° Southwest 345 397 12,700  Level Houston Center
03:34PM 29.8362 -92.4965 227° Southwest  Level FlightAware Approximate
03:34PM 29.8489 -92.5244 233° Southwest 351 404 14,500  Level Houston Center
03:36PM 29.7908 -92.6139 233° Southwest 350 403 16,400 1,440 Climbing Houston Center
03:37PM 29.7203 -92.7200 233° Southwest 348 400 17,500 720 Climbing Houston Center
03:38PM 29.6606 -92.8106 233° Southwest 353 406 18,000 240 Climbing Houston Center
03:39PM 29.6000 -92.9044 233° Southwest 361 415 18,000  Level Houston Center
03:40PM 29.5378 -92.9972 232° Southwest 366 421 18,000  Level Houston Center
03:41PM 29.4881 -93.0953 240° Southwest 362 417 18,000  Level Houston Center
03:42PM 29.4906 -93.2075 271° West 354 407 18,000  Level Houston Center
03:43PM 29.4961 -93.3397 273° West 364 419 18,000  Level Houston Center
03:44PM 29.5019 -93.4661 273° West 388 447 18,000  Level Houston Center
03:45PM 29.5061 -93.5914 272° West 394 453 18,000  Level Houston Center
03:46PM 29.5103 -93.7156 272° West 391 450 18,000  Level Houston Center
03:47PM 29.5153 -93.8678 272° West 396 456 18,000  Level Houston Center
03:47PM 29.5178 -93.9122 274° West 396 456 18,000 -720 Level Houston Center
03:48PM 29.5214 -93.9928 273° West 395 455 17,300 -1,320 Descending Houston Center
03:48PM 29.5231 -94.0244 273° West 396 456 16,800 -2,040 Descending Houston Center
03:49PM 29.5250 -94.1206 271° West 398 458 15,200 -1,920 Descending Houston Center
03:50PM 29.5297 -94.2453 273° West 395 455 13,400 -1,320 Descending Houston Center
03:51PM 29.5433 -94.3661 277° West 387 445 12,500 -1,380 Descending Houston Center
03:52PM 29.5908 -94.4789 296° West 391 450 10,600 -1,260 Descending Houston Center
03:53PM 29.6453 -94.6064 296° West 375 432 9,900 -360 Descending Houston Center
03:54PM 29.6908 -94.7128 296° West 372 428 9,900 -180 Level Houston Center
03:55PM 29.7300 -94.8031 297° West 317 365 9,600 -660 Descending Houston Center
03:56PM 29.7647 -94.8869 296° West 293 337 8,600 -1,080 Descending Houston Center
03:57PM 29.8100 -94.9983 295° West 293 337 7,300 -1,140 Descending Houston Center
03:58PM 29.8450 -95.0806 296° West 291 335 6,200 -720 Descending Houston Center
03:59PM 29.8775 -95.1525 298° West 290 334 5,900 -60 Descending Houston Center
04:00PM 29.9000 -95.2386 287° West 285 328 6,100  Climbing Houston Center
04:01PM 29.9000 -95.3278 270° West 281 323 6,000 -120 Descending Houston Center
04:02PM 29.9006 -95.4336 270° West 279 321 5,900 -480 Descending Houston Center
04:03PM 29.9000 -95.5197 270° West 229 264 5,100 -1,080 Descending Houston Center
04:05PM 29.9100 -95.5894 279° West 237 273 3,700 -1,020 Descending Houston Center
04:06PM 29.9572 -95.6394 317° Northwest 240 276 3,000 -360 Descending Houston Center
04:07PM 29.9922 -95.5858 53° Northeast 209 241 3,000 -120 Level Houston Center
04:07PM 29.9928 -95.5231 89° East 213 245 2,800 -660 Descending Houston Center
04:08PM 29.9931 -95.4581 90° East 176 203 1,800 -1,020 Descending Houston Center